Huntsville, Canada
Current Conditions -  °F | °C
As of 11:00 PM on Wednesday 22 Oct 2014 (Local Time) from CYQA Reporting Station
Clear Clear  
Wind Chill: 35°   Ceiling: Unl
Heat Index: 39°   Visibility: 9mi
Dew Point: 39°   Wind: 6mph
Humidity: 100%   Direction: 330°NNW
Pressure: 30.25"   Gusts: NA
Location:  45.33°N, 79.22°W
Report Text: CYQA 230300Z AUTO 33005KT 9SM CLR 04/04 A3025 RMK SLP254
Loading
Personal Weather Stations






























Interactive Weather Map
Tropical Storm Tracking
New forecast layout! Learn more

10-Day Weather Forecast

Advertisements
Track Severe Weather on mobile